createdAt,value
2019-06-10T00:01:23.580Z,3.30
2019-06-10T00:03:55.501Z,3.37
2019-06-10T00:06:26.503Z,3.05
2019-06-10T00:09:01.589Z,3.05
2019-06-10T00:11:32.287Z,2.83
2019-06-10T00:14:05.737Z,2.90
2019-06-10T00:16:38.764Z,3.85
2019-06-10T00:19:12.783Z,3.55
2019-06-10T00:21:44.057Z,3.10
2019-06-10T00:24:15.309Z,3.35
2019-06-10T00:26:47.360Z,3.22
2019-06-10T00:29:21.975Z,3.95
2019-06-10T00:31:56.483Z,3.35
2019-06-10T00:34:27.625Z,2.83
2019-06-10T00:37:01.994Z,2.58
2019-06-10T00:39:37.567Z,2.87
2019-06-10T00:42:11.561Z,2.83
2019-06-10T00:44:43.796Z,2.80
2019-06-10T00:47:15.448Z,2.80
2019-06-10T00:49:46.572Z,3.17
2019-06-10T00:52:18.183Z,3.10
2019-06-10T00:54:51.954Z,2.90
2019-06-10T00:57:24.731Z,3.35
2019-06-10T00:59:56.436Z,2.98
2019-06-10T01:02:27.640Z,3.10
2019-06-10T01:05:00.878Z,3.30
2019-06-10T01:07:32.489Z,2.80
2019-06-10T01:10:04.708Z,3.10
2019-06-10T01:12:35.815Z,3.25
2019-06-10T01:15:12.525Z,2.90
2019-06-10T01:17:44.134Z,3.30
2019-06-10T01:20:16.084Z,3.30
2019-06-10T01:22:47.320Z,3.50
2019-06-10T01:25:18.797Z,3.22
2019-06-10T01:27:51.532Z,3.83
2019-06-10T01:30:26.993Z,3.22
2019-06-10T01:32:55.296Z,3.20
2019-06-10T01:35:27.278Z,3.05
2019-06-10T01:38:00.672Z,3.85
2019-06-10T01:40:31.543Z,3.27
2019-06-10T01:43:02.124Z,3.67
2019-06-10T01:45:34.750Z,3.02
2019-06-10T01:48:06.857Z,3.17
2019-06-10T01:50:37.798Z,2.98
2019-06-10T01:53:10.115Z,3.30
2019-06-10T01:55:41.881Z,3.92
2019-06-10T01:58:16.253Z,3.55
2019-06-10T02:00:55.229Z,3.30
2019-06-10T02:03:25.868Z,3.98
2019-06-10T02:05:57.266Z,3.85
2019-06-10T02:08:27.843Z,3.75
2019-06-10T02:11:00.942Z,4.12
2019-06-10T02:13:32.447Z,4.42
2019-06-10T02:16:03.777Z,4.55
2019-06-10T02:18:34.424Z,3.75
2019-06-10T02:21:05.748Z,4.55
2019-06-10T02:23:36.413Z,4.15
2019-06-10T02:26:07.239Z,4.75
2019-06-10T02:28:37.780Z,4.67
2019-06-10T02:31:08.346Z,4.42
2019-06-10T02:33:41.994Z,4.90
2019-06-10T02:36:15.939Z,4.20
2019-06-10T02:38:44.678Z,4.87
2019-06-10T02:41:18.625Z,5.10
2019-06-10T02:43:47.744Z,5.20
2019-06-10T02:46:23.424Z,5.30
2019-06-10T02:48:54.198Z,5.25
2019-06-10T02:51:28.667Z,4.92
2019-06-10T02:53:55.354Z,5.05
2019-06-10T02:56:30.716Z,4.90
2019-06-10T02:59:03.181Z,5.22
2019-06-10T03:01:37.869Z,4.67
2019-06-10T03:04:05.449Z,5.17
2019-06-10T03:06:39.959Z,4.72
2019-06-10T03:09:08.284Z,5.17
2019-06-10T03:11:38.990Z,4.30
2019-06-10T03:14:09.675Z,4.42
2019-06-10T03:16:52.820Z,4.30
2019-06-10T03:19:39.713Z,4.30
2019-06-10T03:21:55.543Z,3.50
2019-06-10T03:24:27.393Z,4.33
2019-06-10T03:26:59.331Z,3.55
2019-06-10T03:29:29.943Z,3.90
2019-06-10T03:32:04.591Z,3.50
2019-06-10T03:34:40.518Z,3.50
2019-06-10T03:37:05.167Z,3.40
2019-06-10T03:39:35.628Z,4.08
2019-06-10T03:42:06.240Z,3.62
2019-06-10T03:44:38.550Z,3.52
2019-06-10T03:47:12.033Z,3.50
2019-06-10T03:49:51.897Z,4.20
2019-06-10T03:52:14.738Z,4.17
2019-06-10T03:54:45.512Z,4.20
2019-06-10T03:57:17.176Z,3.77
2019-06-10T03:59:48.674Z,4.00
2019-06-10T04:02:22.322Z,3.90
2019-06-10T04:04:52.537Z,4.17
2019-06-10T04:07:27.407Z,4.12
2019-06-10T04:09:55.548Z,4.03
2019-06-10T04:12:27.847Z,4.25
2019-06-10T04:14:58.836Z,3.95
2019-06-10T04:17:29.394Z,4.58
2019-06-10T04:20:09.426Z,4.25
2019-06-10T04:22:32.921Z,4.85
2019-06-10T04:25:04.015Z,4.72
2019-06-10T04:27:34.625Z,5.30
2019-06-10T04:30:06.615Z,4.60
2019-06-10T04:32:37.161Z,3.95
2019-06-10T04:35:08.758Z,4.30
2019-06-10T04:37:39.960Z,4.08
2019-06-10T04:40:13.154Z,4.03
2019-06-10T04:42:43.698Z,4.42
2019-06-10T04:45:16.069Z,4.72
2019-06-10T04:47:46.808Z,4.20
2019-06-10T04:50:24.579Z,4.00
2019-06-10T04:52:52.768Z,3.75
2019-06-10T04:55:25.040Z,4.00
2019-06-10T04:57:56.140Z,4.72
2019-06-10T05:00:27.656Z,4.55
2019-06-10T05:02:59.432Z,4.45
2019-06-10T05:05:32.768Z,4.33
2019-06-10T05:08:03.645Z,5.22
2019-06-10T05:10:34.148Z,5.35
2019-06-10T05:13:08.469Z,4.80
2019-06-10T05:15:39.683Z,5.53
2019-06-10T05:18:13.030Z,5.20
2019-06-10T05:20:54.115Z,4.95
2019-06-10T05:23:15.114Z,5.03
2019-06-10T05:25:46.018Z,5.10
2019-06-10T05:28:16.726Z,5.60
2019-06-10T05:30:47.282Z,5.45
2019-06-10T05:33:18.779Z,5.25
2019-06-10T05:35:49.633Z,5.05
2019-06-10T05:38:23.440Z,4.80
2019-06-10T05:40:52.539Z,4.80
2019-06-10T05:43:24.760Z,4.80
2019-06-10T05:45:55.554Z,5.37
2019-06-10T05:48:26.719Z,5.20
2019-06-10T05:51:02.894Z,5.00
2019-06-10T05:53:31.495Z,5.42
2019-06-10T05:56:02.462Z,5.45
2019-06-10T05:58:35.838Z,5.55
2019-06-10T06:01:05.428Z,4.92
2019-06-10T06:03:37.039Z,4.40
2019-06-10T06:06:09.435Z,4.10
2019-06-10T06:08:42.651Z,4.30
2019-06-10T06:11:12.915Z,3.83
2019-06-10T06:13:44.530Z,3.70
2019-06-10T06:16:15.154Z,3.47
2019-06-10T06:18:45.813Z,2.90
2019-06-10T06:21:25.367Z,3.45
2019-06-10T06:23:49.750Z,3.90
2019-06-10T06:26:23.249Z,2.67
2019-06-10T06:28:53.483Z,3.08
2019-06-10T06:31:26.066Z,3.20
2019-06-10T06:33:57.307Z,3.67
2019-06-10T06:36:28.651Z,3.20
2019-06-10T06:39:02.189Z,3.58
2019-06-10T06:41:34.510Z,3.87
2019-06-10T06:44:05.860Z,4.03
2019-06-10T06:46:38.200Z,4.28
2019-06-10T06:49:08.665Z,3.98
2019-06-10T06:51:51.914Z,4.25
2019-06-10T06:54:12.544Z,4.08
2019-06-10T06:56:44.005Z,4.33
2019-06-10T06:59:14.620Z,4.62
2019-06-10T07:01:45.506Z,4.08
2019-06-10T07:04:17.437Z,4.65
2019-06-10T07:06:54.963Z,3.92
2019-06-10T07:09:23.589Z,4.33
2019-06-10T07:11:55.997Z,4.15
2019-06-10T07:14:29.348Z,4.10
2019-06-10T07:16:59.896Z,4.03
2019-06-10T07:19:34.416Z,4.08
2019-06-10T07:22:11.739Z,4.20
2019-06-10T07:24:39.450Z,3.87
2019-06-10T07:27:09.973Z,3.55
2019-06-10T07:29:46.919Z,3.55
2019-06-10T07:32:15.766Z,3.75
2019-06-10T07:34:47.009Z,3.80
2019-06-10T07:37:17.722Z,3.00
2019-06-10T07:39:48.364Z,3.62
2019-06-10T07:42:19.643Z,3.37
2019-06-10T07:44:53.132Z,3.25
2019-06-10T07:47:23.534Z,2.65
2019-06-10T07:49:55.426Z,2.80
2019-06-10T07:52:26.082Z,2.70
2019-06-10T07:54:57.629Z,2.80
2019-06-10T07:57:30.198Z,2.35
2019-06-10T08:00:03.179Z,2.30
2019-06-10T08:02:34.065Z,2.42
2019-06-10T08:05:05.293Z,2.40
2019-06-10T08:07:36.732Z,2.35
2019-06-10T08:10:08.244Z,2.50
2019-06-10T08:12:39.529Z,2.37
2019-06-10T08:15:12.495Z,2.70
2019-06-10T08:17:45.590Z,2.22
2019-06-10T08:20:18.651Z,2.30
2019-06-10T08:22:54.021Z,2.15
2019-06-10T08:25:22.943Z,2.35
2019-06-10T08:27:53.790Z,2.20
2019-06-10T08:30:27.684Z,2.40
2019-06-10T08:32:56.787Z,2.00
2019-06-10T08:35:41.475Z,1.77
2019-06-10T08:38:02.329Z,2.15
2019-06-10T08:40:32.670Z,1.92
2019-06-10T08:43:04.296Z,2.20
2019-06-10T08:45:36.781Z,2.12
2019-06-10T08:48:07.602Z,2.50
2019-06-10T08:50:39.357Z,2.30
2019-06-10T08:53:15.573Z,2.25
2019-06-10T08:55:47.873Z,2.12
2019-06-10T08:58:18.097Z,1.90
2019-06-10T09:00:49.549Z,2.42
2019-06-10T09:03:23.186Z,2.27
2019-06-10T09:05:57.726Z,2.42
2019-06-10T09:08:27.565Z,2.33
2019-06-10T09:10:58.093Z,2.25
2019-06-10T09:13:28.570Z,2.52
2019-06-10T09:16:10.822Z,2.65
2019-06-10T09:18:33.723Z,2.22
2019-06-10T09:21:03.630Z,2.60
2019-06-10T09:23:34.193Z,2.52
2019-06-10T09:26:04.858Z,2.85
2019-06-10T09:28:35.418Z,2.47
2019-06-10T09:31:06.035Z,2.80
2019-06-10T09:33:36.617Z,2.55
2019-06-10T09:36:07.192Z,2.52
2019-06-10T09:38:37.790Z,2.70
2019-06-10T09:41:08.459Z,2.20
2019-06-10T09:43:41.339Z,2.30
2019-06-10T09:46:12.680Z,2.60
2019-06-10T09:48:48.595Z,2.40
2019-06-10T09:51:17.114Z,2.30
2019-06-10T09:53:56.187Z,2.40
2019-06-10T09:56:20.009Z,2.77
2019-06-10T09:58:52.928Z,2.35
2019-06-10T10:01:24.764Z,2.80
2019-06-10T10:04:00.277Z,2.95
2019-06-10T10:06:28.438Z,2.52
2019-06-10T10:09:00.206Z,2.55
2019-06-10T10:11:32.095Z,2.90
2019-06-10T10:14:06.473Z,2.60
2019-06-10T10:16:34.872Z,2.62
2019-06-10T10:19:07.359Z,2.40
2019-06-10T10:21:41.234Z,2.75
2019-06-10T10:24:14.596Z,2.05
2019-06-10T10:26:46.641Z,2.67
2019-06-10T10:29:16.498Z,2.60
2019-06-10T10:31:49.444Z,2.17
2019-06-10T10:34:19.337Z,2.55
2019-06-10T10:36:50.884Z,2.62
2019-06-10T10:39:24.526Z,2.65
2019-06-10T10:41:57.054Z,2.77
2019-06-10T10:44:27.058Z,2.40
2019-06-10T10:46:57.694Z,2.83
2019-06-10T10:49:28.439Z,2.42
2019-06-10T10:52:03.134Z,2.27
2019-06-10T10:54:36.722Z,2.27
2019-06-10T10:57:06.344Z,2.22
2019-06-10T10:59:38.062Z,2.80
2019-06-10T11:02:08.844Z,2.55
2019-06-10T11:04:44.322Z,2.65
2019-06-10T11:07:15.829Z,2.75
2019-06-10T11:09:48.441Z,2.10
2019-06-10T11:12:22.811Z,2.72
2019-06-10T11:14:55.299Z,3.00
2019-06-10T11:17:26.255Z,2.58
2019-06-10T11:19:57.772Z,2.80
2019-06-10T11:22:29.314Z,2.42
2019-06-10T11:25:00.333Z,2.50
2019-06-10T11:27:33.046Z,2.83
2019-06-10T11:30:03.207Z,2.60
2019-06-10T11:32:33.818Z,2.30
2019-06-10T11:35:05.909Z,2.72
2019-06-10T11:37:36.410Z,2.58
2019-06-10T11:40:07.251Z,2.67
2019-06-10T11:42:37.786Z,2.87
2019-06-10T11:45:09.815Z,3.33
2019-06-10T11:47:42.661Z,3.25
2019-06-10T11:50:13.751Z,3.00
2019-06-10T11:52:44.774Z,3.40
2019-06-10T11:55:19.615Z,3.42
2019-06-10T11:57:51.006Z,3.60
2019-06-10T12:00:27.295Z,3.60
2019-06-10T12:02:58.982Z,3.75
2019-06-10T12:05:32.610Z,3.58
2019-06-10T12:08:03.045Z,4.37
2019-06-10T12:10:37.526Z,3.72
2019-06-10T12:13:13.362Z,3.67
2019-06-10T12:16:30.575Z,3.60
2019-06-10T12:18:17.201Z,3.77
2019-06-10T12:20:49.648Z,4.20
2019-06-10T12:23:22.163Z,4.65
2019-06-10T12:25:55.903Z,4.35
2019-06-10T12:28:25.386Z,4.95
2019-06-10T12:31:01.061Z,4.60
2019-06-10T12:33:33.339Z,4.47
2019-06-10T12:36:06.682Z,4.42
2019-06-10T12:38:34.969Z,5.17
2019-06-10T12:41:08.887Z,4.75
2019-06-10T12:43:38.187Z,5.22
2019-06-10T12:46:09.246Z,5.10
2019-06-10T12:48:42.689Z,4.45
2019-06-10T12:51:13.986Z,4.83
2019-06-10T12:53:44.610Z,5.22
2019-06-10T12:56:16.491Z,5.12
2019-06-10T12:58:47.095Z,5.62
2019-06-10T13:01:18.605Z,5.45
2019-06-10T13:03:49.204Z,4.97
2019-06-10T13:06:20.094Z,5.30
2019-06-10T13:08:53.287Z,5.17
2019-06-10T13:11:25.307Z,4.97
2019-06-10T13:13:57.772Z,5.65
2019-06-10T13:16:29.575Z,5.08
2019-06-10T13:19:04.441Z,5.40
2019-06-10T13:21:34.071Z,5.17
2019-06-10T13:24:05.453Z,5.58
2019-06-10T13:26:37.018Z,5.90
2019-06-10T13:29:10.123Z,5.25
2019-06-10T13:31:40.195Z,6.30
2019-06-10T13:34:12.118Z,5.92
2019-06-10T13:36:43.469Z,6.55
2019-06-10T13:39:15.014Z,6.05
2019-06-10T13:41:45.622Z,6.30
2019-06-10T13:44:16.912Z,6.35
2019-06-10T13:46:47.814Z,6.40
2019-06-10T13:49:22.669Z,7.05
2019-06-10T13:51:52.901Z,6.95
2019-06-10T13:54:24.978Z,6.55
2019-06-10T13:56:55.692Z,7.22
2019-06-10T13:59:26.328Z,7.10
2019-06-10T14:01:56.971Z,7.42
2019-06-10T14:04:28.479Z,7.22
2019-06-10T14:06:59.135Z,7.37
2019-06-10T14:09:32.876Z,7.35
2019-06-10T14:12:03.947Z,6.47
2019-06-10T14:14:34.898Z,6.97
2019-06-10T14:17:05.783Z,7.22
2019-06-10T14:19:37.377Z,7.15
2019-06-10T14:22:09.580Z,6.95
2019-06-10T14:24:42.120Z,7.30
2019-06-10T14:27:17.225Z,7.72
2019-06-10T14:29:47.074Z,7.05
2019-06-10T14:32:17.667Z,7.37
2019-06-10T14:34:48.304Z,7.05
2019-06-10T14:37:35.046Z,8.08
2019-06-10T14:39:52.968Z,7.45
2019-06-10T14:42:23.787Z,7.85
2019-06-10T14:44:54.406Z,7.25
2019-06-10T14:47:26.116Z,8.00
2019-06-10T14:49:57.728Z,8.28
2019-06-10T14:52:28.331Z,7.42
2019-06-10T14:54:59.185Z,7.92
2019-06-10T14:57:30.534Z,7.10
2019-06-10T15:00:02.955Z,7.65
2019-06-10T15:02:33.866Z,7.40
2019-06-10T15:05:11.229Z,7.85
2019-06-10T15:07:42.388Z,7.40
2019-06-10T15:10:16.068Z,6.58
2019-06-10T15:12:46.015Z,6.78
2019-06-10T15:15:18.095Z,6.70
2019-06-10T15:17:52.540Z,8.30
2019-06-10T15:20:24.050Z,7.15
2019-06-10T15:22:55.081Z,6.55
2019-06-10T15:25:28.218Z,6.25
2019-06-10T15:27:58.217Z,6.10
2019-06-10T15:30:31.453Z,6.53
2019-06-10T15:33:03.017Z,7.33
2019-06-10T15:35:33.293Z,7.20
2019-06-10T15:38:04.250Z,7.40
2019-06-10T15:56:08.918Z,7.28
2019-06-10T15:58:15.605Z,7.65
2019-06-10T16:00:45.915Z,7.47
2019-06-10T16:03:18.930Z,7.28
2019-06-10T16:05:52.758Z,7.25
2019-06-10T16:08:23.742Z,8.30
2019-06-10T16:10:55.230Z,7.90
2019-06-10T16:13:26.060Z,7.72
2019-06-10T16:15:56.595Z,7.65
2019-06-10T16:18:28.083Z,7.55
2019-06-10T16:20:59.017Z,7.72
2019-06-10T16:23:29.774Z,7.33
2019-06-10T16:26:02.670Z,8.00
2019-06-10T16:28:33.095Z,7.08
2019-06-10T16:31:03.898Z,7.20
2019-06-10T16:33:34.407Z,8.08
2019-06-10T16:36:05.025Z,6.80
2019-06-10T16:38:35.698Z,6.72
2019-06-10T16:41:06.517Z,7.55
2019-06-10T16:43:37.150Z,7.40
2019-06-10T16:46:07.765Z,8.28
2019-06-10T16:48:38.416Z,7.62
2019-06-10T16:51:09.035Z,8.00
2019-06-10T16:53:42.476Z,7.87
2019-06-10T16:56:15.450Z,7.55
2019-06-10T16:58:46.906Z,8.20
2019-06-10T17:01:18.446Z,8.70
2019-06-10T17:03:49.887Z,9.13
2019-06-10T17:06:22.419Z,8.40
2019-06-10T17:08:53.371Z,8.58
2019-06-10T17:11:25.796Z,9.45
2019-06-10T17:13:56.387Z,9.23
2019-06-10T17:16:29.123Z,8.78
2019-06-10T17:19:02.291Z,9.20
2019-06-10T17:21:34.717Z,10.00
2019-06-10T17:24:05.704Z,10.25
2019-06-10T17:26:38.208Z,10.68
2019-06-10T17:29:09.085Z,9.80
2019-06-10T17:31:39.674Z,9.78
2019-06-10T17:34:12.988Z,10.50
2019-06-10T17:36:43.070Z,10.30
2019-06-10T17:39:14.820Z,9.55
2019-06-10T17:41:45.600Z,10.58
2019-06-10T17:44:16.224Z,11.60
2019-06-10T17:46:47.035Z,11.35
2019-06-10T17:49:19.441Z,10.88
2019-06-10T17:51:52.466Z,11.75
2019-06-10T17:54:24.103Z,11.90
2019-06-10T17:56:55.215Z,11.57
2019-06-10T17:59:26.794Z,11.22
2019-06-10T18:01:57.549Z,12.78
2019-06-10T18:04:29.343Z,13.55
2019-06-10T18:07:02.255Z,10.95
2019-06-10T18:09:59.466Z,11.15
2019-06-10T18:12:17.436Z,10.95
2019-06-10T18:14:48.167Z,10.80
2019-06-10T18:17:19.432Z,9.83
2019-06-10T18:19:50.611Z,10.20
2019-06-10T18:22:22.890Z,10.38
2019-06-10T18:24:56.305Z,10.78
2019-06-10T18:27:27.105Z,10.63
2019-06-10T18:30:34.419Z,11.18
2019-06-10T18:33:18.168Z,10.15
2019-06-10T18:35:49.329Z,10.15
2019-06-10T18:38:20.097Z,9.75
2019-06-10T18:40:53.341Z,9.78
2019-06-10T18:43:23.236Z,10.15
2019-06-10T18:45:53.956Z,10.30
2019-06-10T18:48:24.572Z,10.38
2019-06-10T18:50:56.610Z,10.38
2019-06-10T18:53:28.426Z,10.05
2019-06-10T18:55:59.165Z,10.03
2019-06-10T18:58:30.044Z,10.25
2019-06-10T19:01:07.483Z,9.70
2019-06-10T19:03:36.236Z,10.18
2019-06-10T19:06:06.754Z,9.58
2019-06-10T19:08:39.001Z,9.10
2019-06-10T19:11:10.105Z,9.53
2019-06-10T19:13:43.300Z,9.63
2019-06-10T19:16:13.183Z,9.58
2019-06-10T19:18:44.861Z,10.00
2019-06-10T19:21:15.477Z,9.93
2019-06-10T19:23:46.126Z,9.75
2019-06-10T19:26:17.744Z,9.45
2019-06-10T19:28:49.373Z,10.10
2019-06-10T19:31:19.994Z,10.13
2019-06-10T19:33:51.970Z,9.50
2019-06-10T19:36:24.818Z,9.33
2019-06-10T19:38:55.488Z,9.78
2019-06-10T19:41:26.221Z,9.60
2019-06-10T19:43:57.701Z,9.85
2019-06-10T19:46:28.215Z,10.18
2019-06-10T19:49:06.244Z,10.75
2019-06-10T19:51:32.919Z,9.78
2019-06-10T19:54:05.498Z,9.50
2019-06-10T19:56:37.137Z,11.43
2019-06-10T19:59:07.997Z,11.60
2019-06-10T20:01:40.467Z,10.23
2019-06-10T20:04:15.616Z,10.78
2019-06-10T20:06:50.310Z,10.10
2019-06-10T20:09:17.510Z,11.45
2019-06-10T20:11:48.346Z,10.63
2019-06-10T20:14:32.243Z,11.25
2019-06-10T20:17:03.351Z,11.25
2019-06-10T20:19:34.084Z,11.40
2019-06-10T20:22:04.734Z,10.70
2019-06-10T20:24:36.379Z,10.68
2019-06-10T20:27:07.925Z,11.43
2019-06-10T20:29:38.544Z,11.33
2019-06-10T20:32:10.202Z,11.88
2019-06-10T20:34:41.353Z,11.30
2019-06-10T20:37:13.268Z,11.30
2019-06-10T20:39:45.965Z,11.30
2019-06-10T20:42:17.733Z,10.25
2019-06-10T20:44:49.253Z,10.95
2019-06-10T20:47:23.095Z,10.95
2019-06-10T20:49:56.029Z,12.18
2019-06-10T20:52:25.796Z,10.75
2019-06-10T20:54:56.482Z,11.18
2019-06-10T20:57:27.411Z,10.55
2019-06-10T20:59:59.350Z,10.48
2019-06-10T21:02:32.449Z,9.75
2019-06-10T21:05:02.971Z,9.88
2019-06-10T21:07:36.371Z,10.03
2019-06-10T21:10:08.247Z,9.50
2019-06-10T21:12:42.159Z,9.53
2019-06-10T21:15:13.789Z,9.73
2019-06-10T21:17:45.892Z,9.55
2019-06-10T21:20:16.863Z,10.05
2019-06-10T21:22:48.672Z,9.88
2019-06-10T21:25:22.826Z,9.15
2019-06-10T21:27:54.986Z,9.70
2019-06-10T21:30:37.592Z,9.25
2019-06-10T21:32:58.105Z,9.48
2019-06-10T21:35:28.912Z,9.43
2019-06-10T21:37:59.467Z,10.10
2019-06-10T21:40:30.173Z,10.50
2019-06-10T21:43:02.878Z,10.68
2019-06-10T21:45:33.888Z,9.45
2019-06-10T21:48:04.564Z,10.20
2019-06-10T21:50:35.367Z,10.55
2019-06-10T21:53:05.942Z,10.88
2019-06-10T21:55:36.512Z,10.23
2019-06-10T21:58:07.171Z,11.73
2019-06-10T22:00:55.358Z,10.65
2019-06-10T22:03:18.461Z,11.30
2019-06-10T22:05:49.541Z,11.85
2019-06-10T22:08:20.432Z,11.43
2019-06-10T22:10:54.371Z,11.73
2019-06-10T22:13:24.397Z,11.55
2019-06-10T22:15:57.211Z,10.72
2019-06-10T22:18:28.532Z,10.28
2019-06-10T22:21:02.540Z,10.20
2019-06-10T22:23:33.751Z,9.75
2019-06-10T22:26:05.163Z,9.85
2019-06-10T22:28:36.408Z,9.58
2019-06-10T22:31:19.660Z,8.45
2019-06-10T22:33:39.475Z,8.93
2019-06-10T22:36:12.914Z,8.78
2019-06-10T22:38:43.293Z,8.85
2019-06-10T22:41:13.999Z,8.93
2019-06-10T22:43:44.572Z,8.93
2019-06-10T22:46:15.814Z,8.98
2019-06-10T22:48:46.890Z,8.73
2019-06-10T22:51:18.329Z,9.48
2019-06-10T22:53:50.236Z,10.23
2019-06-10T22:56:21.797Z,10.88
2019-06-10T22:58:54.331Z,10.55
2019-06-10T23:01:34.229Z,10.18
2019-06-10T23:03:57.011Z,12.35
2019-06-10T23:06:27.570Z,12.88
2019-06-10T23:08:59.404Z,13.93
2019-06-10T23:11:32.207Z,14.00
2019-06-10T23:14:04.598Z,14.63
2019-06-10T23:16:35.328Z,14.87
2019-06-10T23:19:05.988Z,14.70
2019-06-10T23:21:37.495Z,14.40
2019-06-10T23:24:08.133Z,15.43
2019-06-10T23:26:39.478Z,14.53
2019-06-10T23:29:12.291Z,14.50
2019-06-10T23:31:51.750Z,15.32
2019-06-10T23:34:19.733Z,15.20
2019-06-10T23:36:51.127Z,15.28
2019-06-10T23:39:22.612Z,14.70
2019-06-10T23:41:55.133Z,14.78
2019-06-10T23:44:28.436Z,14.95
2019-06-10T23:47:02.377Z,14.68
2019-06-10T23:49:32.797Z,14.55
2019-06-10T23:52:05.358Z,14.45
2019-06-10T23:54:36.125Z,14.43
2019-06-10T23:57:06.973Z,13.90
2019-06-10T23:59:37.486Z,14.28
